createdAt,value
2022-12-08T00:01:32.470Z,94.96
2022-12-08T00:04:02.257Z,94.87
2022-12-08T00:06:53.708Z,94.72
2022-12-08T00:09:25.706Z,94.26
2022-12-08T00:12:13.280Z,94.47
2022-12-08T00:14:43.456Z,94.51
2022-12-08T00:17:13.934Z,94.66
2022-12-08T00:19:42.300Z,94.56
2022-12-08T00:22:12.147Z,94.50
2022-12-08T00:24:41.669Z,94.34
2022-12-08T00:27:11.983Z,94.15
2022-12-08T00:29:40.255Z,94.43
2022-12-08T00:32:08.099Z,94.40
2022-12-08T00:34:36.031Z,94.54
2022-12-08T00:37:03.767Z,94.08
2022-12-08T00:39:31.847Z,94.29
2022-12-08T00:42:15.575Z,94.14
2022-12-08T00:44:45.021Z,93.82
2022-12-08T00:47:13.656Z,93.71
2022-12-08T00:49:42.292Z,93.76
2022-12-08T00:52:10.032Z,93.92
2022-12-08T00:54:37.970Z,94.12
2022-12-08T00:57:05.835Z,94.17
2022-12-08T00:59:33.502Z,94.25
2022-12-08T01:02:01.193Z,94.22
2022-12-08T01:04:28.948Z,94.21
2022-12-08T01:06:56.712Z,94.04
2022-12-08T01:09:24.432Z,94.22
2022-12-08T01:11:52.093Z,94.12
2022-12-08T01:14:20.037Z,94.13
2022-12-08T01:16:47.856Z,94.29
2022-12-08T01:19:16.770Z,94.31
2022-12-08T01:21:46.041Z,94.51
2022-12-08T01:24:16.599Z,94.61
2022-12-08T01:26:44.592Z,94.56
2022-12-08T01:29:12.838Z,94.73
2022-12-08T01:31:40.828Z,94.65
2022-12-08T01:34:11.168Z,94.58
2022-12-08T01:36:39.390Z,94.69
2022-12-08T01:39:10.540Z,94.44
2022-12-08T01:41:38.535Z,94.49
2022-12-08T01:44:10.484Z,94.43
2022-12-08T01:46:41.181Z,94.54
2022-12-08T01:49:18.008Z,94.40
2022-12-08T01:51:56.714Z,94.53
2022-12-08T01:54:28.588Z,94.49
2022-12-08T01:57:06.290Z,94.56
2022-12-08T01:59:39.289Z,94.42
2022-12-08T02:02:09.086Z,94.43
2022-12-08T02:04:36.798Z,94.40
2022-12-08T02:07:08.135Z,94.14
2022-12-08T02:09:38.208Z,94.29
2022-12-08T02:12:07.090Z,94.34
2022-12-08T02:14:35.292Z,94.32
2022-12-08T02:17:09.245Z,94.27
2022-12-08T02:19:49.602Z,93.98
2022-12-08T02:22:31.438Z,93.97
2022-12-08T02:25:07.399Z,94.16
2022-12-08T02:28:01.325Z,94.21
2022-12-08T02:31:01.559Z,94.10
2022-12-08T02:34:01.482Z,93.96
2022-12-08T02:36:37.231Z,93.96
2022-12-08T02:39:18.164Z,93.80
2022-12-08T02:41:53.573Z,93.70
2022-12-08T02:44:47.170Z,94.01
2022-12-08T02:47:18.789Z,93.74
2022-12-08T02:49:46.486Z,93.94
2022-12-08T02:52:14.081Z,93.92
2022-12-08T02:54:51.453Z,94.06
2022-12-08T02:57:41.135Z,93.76
2022-12-08T03:00:16.341Z,93.81
2022-12-08T03:03:04.296Z,93.93
2022-12-08T03:05:41.843Z,93.79
2022-12-08T03:08:37.272Z,93.81
2022-12-08T03:11:41.224Z,93.84
2022-12-08T03:14:13.072Z,93.75
2022-12-08T03:16:46.317Z,93.85
2022-12-08T03:19:23.063Z,93.78
2022-12-08T03:21:54.148Z,93.72
2022-12-08T03:24:23.141Z,93.83
2022-12-08T03:26:58.394Z,93.86
2022-12-08T03:29:26.505Z,94.01
2022-12-08T03:31:57.939Z,93.80
2022-12-08T03:34:28.803Z,93.94
2022-12-08T03:36:56.537Z,93.94
2022-12-08T03:39:24.291Z,94.00
2022-12-08T03:41:52.034Z,93.90
2022-12-08T03:44:19.654Z,93.55
2022-12-08T03:46:47.365Z,93.71
2022-12-08T03:49:15.054Z,93.69
2022-12-08T03:51:42.712Z,93.55
2022-12-08T03:54:10.519Z,93.74
2022-12-08T03:56:39.524Z,93.86
2022-12-08T03:59:08.073Z,93.84
2022-12-08T04:01:35.715Z,93.73
2022-12-08T04:04:03.494Z,93.84
2022-12-08T04:06:31.275Z,93.95
2022-12-08T04:08:58.952Z,93.95
2022-12-08T04:11:26.761Z,93.90
2022-12-08T04:13:54.482Z,93.82
2022-12-08T04:16:24.877Z,93.80
2022-12-08T04:18:52.558Z,93.81
2022-12-08T04:21:20.369Z,93.89
2022-12-08T04:23:48.259Z,93.75
2022-12-08T04:26:16.541Z,93.78
2022-12-08T04:28:44.457Z,93.85
2022-12-08T04:31:12.299Z,93.85
2022-12-08T04:33:40.251Z,93.88
2022-12-08T04:36:08.682Z,93.91
2022-12-08T04:38:36.762Z,94.12
2022-12-08T04:41:04.577Z,94.09
2022-12-08T04:43:32.281Z,93.99
2022-12-08T04:46:00.233Z,93.92
2022-12-08T04:48:27.847Z,94.01
2022-12-08T04:50:55.582Z,93.85
2022-12-08T04:53:23.443Z,93.84
2022-12-08T04:55:51.252Z,93.88
2022-12-08T04:58:19.860Z,93.83
2022-12-08T05:00:48.269Z,93.70
2022-12-08T05:03:17.152Z,93.55
2022-12-08T05:05:44.882Z,93.70
2022-12-08T05:08:12.598Z,93.35
2022-12-08T05:10:40.368Z,93.47
2022-12-08T05:13:08.241Z,93.46
2022-12-08T05:15:36.016Z,93.49
2022-12-08T05:18:06.430Z,93.38
2022-12-08T05:20:35.123Z,93.34
2022-12-08T05:23:02.774Z,93.33
2022-12-08T05:25:30.442Z,93.02
2022-12-08T05:28:17.481Z,93.06
2022-12-08T05:30:45.814Z,93.04
2022-12-08T05:33:14.024Z,92.94
2022-12-08T05:35:41.665Z,92.90
2022-12-08T05:38:10.965Z,92.88
2022-12-08T05:40:40.044Z,92.84
2022-12-08T05:43:07.635Z,92.61
2022-12-08T05:45:35.313Z,92.49
2022-12-08T05:48:03.277Z,92.66
2022-12-08T05:50:30.853Z,92.59
2022-12-08T05:52:58.437Z,92.47
2022-12-08T05:55:26.045Z,92.23
2022-12-08T05:57:53.704Z,92.11
2022-12-08T06:00:22.084Z,91.91
2022-12-08T06:02:49.960Z,91.61
2022-12-08T06:05:17.840Z,91.67
2022-12-08T06:07:45.677Z,91.36
2022-12-08T06:10:13.495Z,91.19
2022-12-08T06:12:41.328Z,91.55
2022-12-08T06:15:09.631Z,91.26
2022-12-08T06:17:37.311Z,91.26
2022-12-08T06:20:06.661Z,90.64
2022-12-08T06:22:35.198Z,90.61
2022-12-08T06:25:06.055Z,90.00
2022-12-08T06:27:36.172Z,90.42
2022-12-08T06:30:05.011Z,90.78
2022-12-08T06:32:48.108Z,90.60
2022-12-08T06:35:17.406Z,90.10
2022-12-08T06:37:45.098Z,89.95
2022-12-08T06:40:13.381Z,89.63
2022-12-08T06:42:43.980Z,89.31
2022-12-08T06:45:14.035Z,88.65
2022-12-08T06:47:42.832Z,89.40
2022-12-08T06:50:11.680Z,89.49
2022-12-08T06:52:53.040Z,89.88
2022-12-08T06:55:57.266Z,89.64
2022-12-08T06:58:14.822Z,89.45
2022-12-08T07:00:43.331Z,89.15
2022-12-08T07:03:11.926Z,89.22
2022-12-08T07:05:39.554Z,89.14
2022-12-08T07:08:09.019Z,88.76
2022-12-08T07:10:37.422Z,88.49
2022-12-08T07:13:05.201Z,88.41
2022-12-08T07:15:32.812Z,88.90
2022-12-08T07:18:00.786Z,88.17
2022-12-08T07:20:28.904Z,88.09
2022-12-08T07:22:56.840Z,88.07
2022-12-08T07:25:24.430Z,88.44
2022-12-08T07:27:53.193Z,88.53
2022-12-08T07:30:21.028Z,88.64
2022-12-08T07:32:48.666Z,88.88
2022-12-08T07:35:16.370Z,88.94
2022-12-08T07:37:44.004Z,88.62
2022-12-08T07:40:12.349Z,88.11
2022-12-08T07:42:39.955Z,88.12
2022-12-08T07:45:08.109Z,88.23
2022-12-08T07:47:35.729Z,88.36
2022-12-08T07:50:04.362Z,87.93
2022-12-08T07:52:35.187Z,87.62
2022-12-08T07:55:02.972Z,87.62
2022-12-08T07:57:30.642Z,87.57
2022-12-08T07:59:58.241Z,87.22
2022-12-08T08:05:01.763Z,87.01
2022-12-08T08:08:30.027Z,87.38
2022-12-08T08:10:58.639Z,87.17
2022-12-08T08:13:26.314Z,87.37
2022-12-08T08:15:55.081Z,87.57
2022-12-08T08:18:23.406Z,87.50
2022-12-08T08:20:50.979Z,87.78
2022-12-08T08:23:21.141Z,87.75
2022-12-08T08:25:48.846Z,87.97
2022-12-08T08:28:16.466Z,87.51
2022-12-08T08:30:45.805Z,87.47
2022-12-08T08:33:14.306Z,87.32
2022-12-08T08:35:42.303Z,87.13
2022-12-08T08:38:09.988Z,87.40
2022-12-08T08:40:37.634Z,87.51
2022-12-08T08:43:06.649Z,87.42
2022-12-08T08:45:34.913Z,87.23
2022-12-08T08:48:02.579Z,87.23
2022-12-08T08:50:35.889Z,87.24
2022-12-08T08:53:05.637Z,87.23
2022-12-08T08:55:33.609Z,87.03
2022-12-08T08:58:01.420Z,87.28
2022-12-08T09:00:29.026Z,87.43
2022-12-08T09:02:56.642Z,87.19
2022-12-08T09:05:24.315Z,87.26
2022-12-08T09:07:51.969Z,87.15
2022-12-08T09:10:19.746Z,87.23
2022-12-08T09:12:47.395Z,87.20
2022-12-08T09:15:15.420Z,87.33
2022-12-08T09:17:44.820Z,87.44
2022-12-08T09:20:12.701Z,87.47
2022-12-08T09:22:40.553Z,87.55
2022-12-08T09:25:08.681Z,87.73
2022-12-08T09:27:36.314Z,87.56
2022-12-08T09:30:04.714Z,87.61
2022-12-08T09:32:32.633Z,87.53
2022-12-08T09:35:01.392Z,87.52
2022-12-08T09:37:28.977Z,87.51
2022-12-08T09:39:59.538Z,87.71
2022-12-08T09:42:52.098Z,87.92
2022-12-08T09:45:20.764Z,87.89
2022-12-08T09:47:58.003Z,88.03
2022-12-08T09:50:57.895Z,87.99
2022-12-08T09:53:37.155Z,88.34
2022-12-08T09:56:21.070Z,88.34
2022-12-08T09:58:55.388Z,88.51
2022-12-08T10:01:27.863Z,88.47
2022-12-08T10:03:56.132Z,88.55
2022-12-08T10:06:55.932Z,88.68
2022-12-08T10:09:39.992Z,88.76
2022-12-08T10:12:18.696Z,88.37
2022-12-08T10:15:05.051Z,88.48
2022-12-08T10:17:38.032Z,88.34
2022-12-08T10:20:23.505Z,88.33
2022-12-08T10:23:03.278Z,88.50
2022-12-08T10:25:38.148Z,88.51
2022-12-08T10:28:05.829Z,88.52
2022-12-08T10:30:33.592Z,88.49
2022-12-08T10:33:01.481Z,88.32
2022-12-08T10:35:54.079Z,88.21
2022-12-08T10:38:31.526Z,88.27
2022-12-08T10:41:18.072Z,88.27
2022-12-08T10:43:54.867Z,88.11
2022-12-08T10:46:27.521Z,87.82
2022-12-08T10:49:11.079Z,87.76
2022-12-08T10:51:41.300Z,87.79
2022-12-08T10:54:41.986Z,87.74
2022-12-08T10:57:23.689Z,87.96
2022-12-08T10:59:55.904Z,87.98
2022-12-08T11:02:23.909Z,87.89
2022-12-08T11:05:01.428Z,87.61
2022-12-08T11:07:29.330Z,87.54
2022-12-08T11:09:58.257Z,87.30
2022-12-08T11:12:29.418Z,87.43
2022-12-08T11:15:03.001Z,87.33
2022-12-08T11:17:39.358Z,87.38
2022-12-08T11:20:09.917Z,87.40
2022-12-08T11:22:39.762Z,87.44
2022-12-08T11:25:07.348Z,87.49
2022-12-08T11:27:38.362Z,87.59
2022-12-08T11:30:25.138Z,87.51
2022-12-08T11:33:01.751Z,87.37
2022-12-08T11:35:41.329Z,87.25
2022-12-08T11:38:21.394Z,87.60
2022-12-08T11:40:57.035Z,87.86
2022-12-08T11:43:33.560Z,87.96
2022-12-08T11:46:13.180Z,88.28
2022-12-08T11:49:05.958Z,88.40
2022-12-08T11:51:44.178Z,88.58
2022-12-08T11:54:27.818Z,88.62
2022-12-08T11:57:04.689Z,88.48
2022-12-08T11:59:37.987Z,88.66
2022-12-08T12:02:12.139Z,88.49
2022-12-08T12:04:49.331Z,88.59
2022-12-08T12:07:35.685Z,88.82
2022-12-08T12:10:50.105Z,89.13
2022-12-08T12:13:42.543Z,89.21
2022-12-08T12:16:42.117Z,89.47
2022-12-08T12:19:16.640Z,89.66
2022-12-08T12:21:53.733Z,89.84
2022-12-08T12:24:36.243Z,89.88
2022-12-08T12:27:23.093Z,89.87
2022-12-08T12:29:57.535Z,89.93
2022-12-08T12:32:27.709Z,90.12
2022-12-08T12:34:58.967Z,90.21
2022-12-08T12:37:38.851Z,90.37
2022-12-08T12:40:28.694Z,90.52
2022-12-08T12:42:56.284Z,90.79
2022-12-08T12:45:31.742Z,90.86
2022-12-08T12:47:59.817Z,91.10
2022-12-08T12:50:33.793Z,91.24
2022-12-08T12:53:18.069Z,91.34
2022-12-08T12:55:46.091Z,91.52
2022-12-08T12:58:29.787Z,91.80
2022-12-08T13:01:20.770Z,91.91
2022-12-08T13:04:02.271Z,92.27
2022-12-08T13:06:38.609Z,92.40
2022-12-08T13:09:07.319Z,92.49
2022-12-08T13:11:53.406Z,92.63
2022-12-08T13:14:28.983Z,92.46
2022-12-08T13:16:59.258Z,92.52
2022-12-08T13:19:31.269Z,92.80
2022-12-08T13:21:59.833Z,92.95
2022-12-08T13:24:32.574Z,92.91
2022-12-08T13:27:03.222Z,92.96
2022-12-08T13:29:32.832Z,92.85
2022-12-08T13:32:05.026Z,93.07
2022-12-08T13:34:45.290Z,93.14
2022-12-08T13:37:18.677Z,93.13
2022-12-08T13:40:05.808Z,93.14
2022-12-08T13:42:42.398Z,93.18
2022-12-08T13:45:43.581Z,93.15
2022-12-08T13:48:35.200Z,93.27
2022-12-08T13:55:25.905Z,93.24
2022-12-08T13:57:35.010Z,93.30
2022-12-08T14:00:16.718Z,93.36
2022-12-08T14:02:49.950Z,93.38
2022-12-08T14:05:34.643Z,93.38
2022-12-08T14:08:57.931Z,93.41
2022-12-08T14:11:49.351Z,93.47
2022-12-08T14:14:53.796Z,93.56
2022-12-08T14:17:23.293Z,93.51
2022-12-08T14:20:09.132Z,93.74
2022-12-08T14:22:39.055Z,93.71
2022-12-08T14:25:12.935Z,93.85
2022-12-08T14:27:40.625Z,93.71
2022-12-08T14:30:14.567Z,94.09
2022-12-08T14:33:01.275Z,93.99
2022-12-08T14:35:35.184Z,93.88
2022-12-08T14:38:04.539Z,93.91
2022-12-08T14:40:37.041Z,94.09
2022-12-08T14:43:07.728Z,94.13
2022-12-08T14:45:41.385Z,94.22
2022-12-08T14:48:26.679Z,94.12
2022-12-08T14:51:04.300Z,94.29
2022-12-08T14:53:47.923Z,94.13
2022-12-08T14:56:36.545Z,94.30
2022-12-08T14:59:22.910Z,94.52
2022-12-08T15:01:53.886Z,94.37
2022-12-08T15:04:28.233Z,94.35
2022-12-08T15:07:19.214Z,94.31
2022-12-08T15:09:50.073Z,94.13
2022-12-08T15:12:27.305Z,94.08
2022-12-08T15:14:57.182Z,94.00
2022-12-08T15:17:42.734Z,94.22
2022-12-08T15:20:42.421Z,94.26
2022-12-08T15:23:28.109Z,94.09
2022-12-08T15:25:57.119Z,94.16
2022-12-08T15:28:30.022Z,93.98
2022-12-08T15:30:58.997Z,94.14
2022-12-08T15:33:27.303Z,94.21
2022-12-08T15:35:54.922Z,94.18
2022-12-08T15:38:28.747Z,94.18
2022-12-08T15:40:58.742Z,94.21
2022-12-08T15:43:26.603Z,94.37
2022-12-08T15:45:59.445Z,94.33
2022-12-08T15:48:29.856Z,94.33
2022-12-08T15:50:58.776Z,94.50
2022-12-08T15:53:26.560Z,94.35
2022-12-08T15:58:58.744Z,94.38
2022-12-08T16:01:27.496Z,94.44
2022-12-08T16:09:39.663Z,94.60
2022-12-08T16:13:27.242Z,94.57
2022-12-08T16:18:24.149Z,94.67
2022-12-08T16:21:09.699Z,94.52
2022-12-08T16:23:44.553Z,94.70
2022-12-08T16:26:28.956Z,94.63
2022-12-08T16:29:04.313Z,94.81
2022-12-08T16:31:32.033Z,94.61
2022-12-08T16:34:00.027Z,94.77
2022-12-08T16:36:27.913Z,94.70
2022-12-08T16:38:55.601Z,94.73
2022-12-08T16:41:39.284Z,94.68
2022-12-08T16:44:06.957Z,94.71
2022-12-08T16:46:35.860Z,94.65
2022-12-08T16:49:04.536Z,94.68
2022-12-08T16:51:32.239Z,94.79
2022-12-08T16:53:59.922Z,94.72
2022-12-08T16:56:32.755Z,94.76
2022-12-08T16:59:02.371Z,94.86
2022-12-08T17:01:30.442Z,94.96
2022-12-08T17:04:29.722Z,95.07
2022-12-08T17:06:46.552Z,94.91
2022-12-08T17:09:14.170Z,95.00
2022-12-08T17:11:43.612Z,94.96
2022-12-08T17:14:13.673Z,95.06
2022-12-08T17:16:42.743Z,94.96
2022-12-08T17:19:12.893Z,94.87
2022-12-08T17:21:40.788Z,94.89
2022-12-08T17:24:08.487Z,94.88
2022-12-08T17:26:36.638Z,94.92
2022-12-08T17:29:04.662Z,94.96
2022-12-08T17:31:33.219Z,94.95
2022-12-08T17:34:03.155Z,94.92
2022-12-08T17:36:32.033Z,95.01
2022-12-08T17:39:01.020Z,95.01
2022-12-08T17:41:29.919Z,95.08
2022-12-08T17:43:57.814Z,95.07
2022-12-08T17:46:25.776Z,95.09
2022-12-08T17:48:53.633Z,95.10
2022-12-08T17:51:21.682Z,95.16
2022-12-08T17:53:49.389Z,95.22
2022-12-08T17:56:20.797Z,95.20
2022-12-08T17:58:54.177Z,95.27
2022-12-08T18:01:23.406Z,95.24
2022-12-08T18:03:51.439Z,95.32
2022-12-08T18:06:19.546Z,95.31
2022-12-08T18:08:47.775Z,95.42
2022-12-08T18:11:19.460Z,95.44
2022-12-08T18:13:48.823Z,95.47
2022-12-08T18:16:21.187Z,95.48
2022-12-08T18:22:04.995Z,95.68
2022-12-08T18:24:34.089Z,95.77
2022-12-08T18:27:01.761Z,95.88
2022-12-08T18:29:40.767Z,95.91
2022-12-08T18:32:09.135Z,95.98
2022-12-08T18:34:36.894Z,95.85
2022-12-08T18:37:04.763Z,95.94
2022-12-08T18:39:33.659Z,96.05
2022-12-08T18:42:22.009Z,95.98
2022-12-08T18:44:51.788Z,96.10
2022-12-08T18:47:19.811Z,96.20
2022-12-08T18:49:47.469Z,96.22
2022-12-08T18:52:17.863Z,96.23
2022-12-08T18:55:05.760Z,96.13
2022-12-08T18:57:34.317Z,96.13
2022-12-08T19:00:02.589Z,96.28
2022-12-08T19:02:30.761Z,96.19
2022-12-08T19:04:58.540Z,96.41
2022-12-08T19:07:26.271Z,96.29
2022-12-08T19:09:54.282Z,96.31
2022-12-08T19:12:22.425Z,96.33
2022-12-08T19:14:50.231Z,96.19
2022-12-08T19:17:17.951Z,96.23
2022-12-08T19:19:45.602Z,96.31
2022-12-08T19:22:13.935Z,96.21
2022-12-08T19:24:41.786Z,96.27
2022-12-08T19:27:09.667Z,96.36
2022-12-08T19:29:37.458Z,96.41
2022-12-08T19:32:05.388Z,96.33
2022-12-08T19:34:33.161Z,96.40
2022-12-08T19:37:00.768Z,96.21
2022-12-08T19:39:44.327Z,96.12
2022-12-08T19:42:31.370Z,96.16
2022-12-08T19:45:04.015Z,96.29
2022-12-08T19:47:31.718Z,96.35
2022-12-08T19:50:14.445Z,96.42
2022-12-08T19:52:42.837Z,96.54
2022-12-08T19:55:10.663Z,96.58
2022-12-08T19:57:38.717Z,96.53
2022-12-08T20:00:10.022Z,96.58
2022-12-08T20:02:37.981Z,96.62
2022-12-08T20:05:06.360Z,96.68
2022-12-08T20:07:34.470Z,96.73
2022-12-08T20:10:09.913Z,96.91
2022-12-08T20:12:37.606Z,96.92
2022-12-08T20:15:06.372Z,96.73
2022-12-08T20:17:34.048Z,96.83
2022-12-08T20:20:06.799Z,96.81
2022-12-08T20:22:35.247Z,96.79
2022-12-08T20:25:03.098Z,96.94
2022-12-08T20:27:30.749Z,96.81
2022-12-08T20:29:58.521Z,96.86
2022-12-08T20:32:26.209Z,96.86
2022-12-08T20:34:53.894Z,96.98
2022-12-08T20:37:21.945Z,97.00
2022-12-08T20:39:49.612Z,97.08
2022-12-08T20:42:19.076Z,97.12
2022-12-08T20:44:46.976Z,97.29
2022-12-08T20:47:16.044Z,97.34
2022-12-08T20:49:43.767Z,97.34
2022-12-08T20:52:11.589Z,97.53
2022-12-08T20:54:39.514Z,97.59
2022-12-08T20:57:07.258Z,97.47
2022-12-08T20:59:35.359Z,97.49
2022-12-08T21:02:03.227Z,97.60
2022-12-08T21:04:31.576Z,97.43
2022-12-08T21:07:00.522Z,97.52
2022-12-08T21:09:28.557Z,97.36
2022-12-08T21:11:56.386Z,97.36
2022-12-08T21:14:24.128Z,97.35
2022-12-08T21:16:54.412Z,97.27
2022-12-08T21:19:22.453Z,97.38
2022-12-08T21:21:50.939Z,97.45
2022-12-08T21:24:19.012Z,97.28
2022-12-08T21:26:46.825Z,97.18
2022-12-08T21:29:14.601Z,97.10
2022-12-08T21:31:42.435Z,97.13
2022-12-08T21:34:11.168Z,97.27
2022-12-08T21:36:39.126Z,97.29
2022-12-08T21:39:12.426Z,97.09
2022-12-08T21:41:56.313Z,96.84
2022-12-08T21:44:24.398Z,96.77
2022-12-08T21:46:52.585Z,96.82
2022-12-08T21:49:20.596Z,96.71
2022-12-08T21:51:48.468Z,96.78
2022-12-08T21:54:18.956Z,96.81
2022-12-08T21:56:48.328Z,96.79
2022-12-08T21:59:17.798Z,96.74
2022-12-08T22:01:45.799Z,96.64
2022-12-08T22:04:17.533Z,96.67
2022-12-08T22:06:45.606Z,96.76
2022-12-08T22:09:15.300Z,96.87
2022-12-08T22:11:44.074Z,96.64
2022-12-08T22:14:14.798Z,96.72
2022-12-08T22:16:44.104Z,96.66
2022-12-08T22:19:12.596Z,96.56
2022-12-08T22:21:40.754Z,96.61
2022-12-08T22:24:09.044Z,96.70
2022-12-08T22:26:36.785Z,96.76
2022-12-08T22:29:04.580Z,96.64
2022-12-08T22:31:32.854Z,96.71
2022-12-08T22:34:00.749Z,96.74
2022-12-08T22:36:28.913Z,96.91
2022-12-08T22:38:56.635Z,96.82
2022-12-08T22:41:25.440Z,96.66
2022-12-08T22:43:53.435Z,96.52
2022-12-08T22:46:26.548Z,96.53
2022-12-08T22:48:54.784Z,96.34
2022-12-08T22:51:22.610Z,96.49
2022-12-08T22:53:50.871Z,96.41
2022-12-08T22:56:19.315Z,96.59
2022-12-08T22:58:47.165Z,96.53
2022-12-08T23:01:27.259Z,96.52
2022-12-08T23:03:56.188Z,96.73
2022-12-08T23:06:25.899Z,96.64
2022-12-08T23:08:54.855Z,96.52
2022-12-08T23:11:27.920Z,96.20
2022-12-08T23:13:57.290Z,96.13
2022-12-08T23:16:25.000Z,96.13
2022-12-08T23:18:52.832Z,95.96
2022-12-08T23:21:23.432Z,96.26
2022-12-08T23:23:54.187Z,96.32
2022-12-08T23:26:25.341Z,96.26
2022-12-08T23:29:19.665Z,96.32
2022-12-08T23:31:47.504Z,96.22
2022-12-08T23:34:15.413Z,96.36
2022-12-08T23:36:43.302Z,96.53
2022-12-08T23:39:11.807Z,96.56
2022-12-08T23:41:39.412Z,96.69
2022-12-08T23:44:09.096Z,96.89
2022-12-08T23:46:36.983Z,96.86
2022-12-08T23:49:04.852Z,97.03
2022-12-08T23:51:32.447Z,96.75
2022-12-08T23:54:00.252Z,96.82
2022-12-08T23:56:30.510Z,96.87
2022-12-08T23:59:01.190Z,97.10
